createdAt,value
2023-04-13T00:00:46.773Z,51.00
2023-04-13T00:03:18.182Z,51.00
2023-04-13T00:05:46.788Z,51.00
2023-04-13T00:08:14.369Z,51.20
2023-04-13T00:10:41.868Z,51.30
2023-04-13T00:13:11.069Z,51.20
2023-04-13T00:15:43.348Z,51.40
2023-04-13T00:18:11.652Z,51.50
2023-04-13T00:20:41.941Z,51.50
2023-04-13T00:23:10.162Z,51.60
2023-04-13T00:25:37.383Z,51.70
2023-04-13T00:28:06.404Z,51.80
2023-04-13T00:30:33.938Z,51.80
2023-04-13T00:33:03.898Z,51.90
2023-04-13T00:35:31.296Z,51.90
2023-04-13T00:37:59.019Z,51.90
2023-04-13T00:40:28.194Z,52.00
2023-04-13T00:42:56.199Z,52.00
2023-04-13T00:45:23.454Z,52.10
2023-04-13T00:47:51.991Z,52.10
2023-04-13T00:50:21.263Z,52.10
2023-04-13T00:52:49.669Z,52.10
2023-04-13T00:55:21.568Z,52.10
2023-04-13T00:57:53.097Z,52.10
2023-04-13T01:00:21.326Z,52.10
2023-04-13T01:02:50.640Z,52.20
2023-04-13T01:05:18.759Z,52.10
2023-04-13T01:08:09.304Z,52.20
2023-04-13T01:10:54.294Z,52.20
2023-04-13T01:13:32.739Z,52.30
2023-04-13T01:16:14.745Z,52.30
2023-04-13T01:18:45.336Z,52.40
2023-04-13T01:21:18.177Z,52.40
2023-04-13T01:24:40.633Z,52.30
2023-04-13T01:27:17.830Z,52.30
2023-04-13T01:29:47.005Z,52.30
2023-04-13T01:32:16.479Z,52.50
2023-04-13T01:34:45.408Z,52.50
2023-04-13T01:37:14.592Z,52.50
2023-04-13T01:39:41.866Z,52.40
2023-04-13T01:42:09.225Z,52.50
2023-04-13T01:44:36.636Z,52.50
2023-04-13T01:47:16.529Z,52.50
2023-04-13T01:49:57.676Z,52.50
2023-04-13T01:52:28.050Z,53.10
2023-04-13T01:54:56.888Z,52.50
2023-04-13T01:57:26.275Z,52.50
2023-04-13T01:59:53.448Z,52.60
2023-04-13T02:02:20.994Z,52.70
2023-04-13T02:04:48.683Z,52.70
2023-04-13T02:07:16.403Z,52.60
2023-04-13T02:09:43.725Z,52.60
2023-04-13T02:12:11.253Z,52.60
2023-04-13T02:14:38.598Z,52.70
2023-04-13T02:17:05.820Z,52.60
2023-04-13T02:19:33.030Z,52.60
2023-04-13T02:22:00.638Z,52.60
2023-04-13T02:24:27.840Z,52.60
2023-04-13T02:26:56.652Z,52.60
2023-04-13T02:29:24.157Z,52.50
2023-04-13T02:31:51.401Z,52.40
2023-04-13T02:34:18.640Z,52.50
2023-04-13T02:36:46.550Z,52.40
2023-04-13T02:39:13.873Z,52.60
2023-04-13T02:41:43.329Z,52.50
2023-04-13T02:44:11.630Z,52.60
2023-04-13T02:46:39.099Z,52.50
2023-04-13T02:49:06.307Z,52.50
2023-04-13T02:51:33.620Z,52.50
2023-04-13T02:54:03.286Z,52.50
2023-04-13T02:56:31.101Z,52.50
2023-04-13T02:58:59.827Z,52.50
2023-04-13T03:01:27.143Z,52.50
2023-04-13T03:03:54.675Z,52.60
2023-04-13T03:06:24.177Z,52.60
2023-04-13T03:08:51.548Z,52.70
2023-04-13T03:11:20.608Z,52.60
2023-04-13T03:13:48.022Z,52.80
2023-04-13T03:16:15.664Z,52.90
2023-04-13T03:18:42.911Z,52.80
2023-04-13T03:21:10.114Z,52.80
2023-04-13T03:23:37.271Z,52.80
2023-04-13T03:26:04.900Z,52.80
2023-04-13T03:28:32.093Z,52.70
2023-04-13T03:30:59.308Z,52.60
2023-04-13T03:33:29.662Z,52.60
2023-04-13T03:35:57.559Z,52.60
2023-04-13T03:38:24.780Z,52.60
2023-04-13T03:40:51.984Z,52.70
2023-04-13T03:43:19.242Z,53.00
2023-04-13T03:45:46.589Z,53.00
2023-04-13T03:48:14.354Z,53.40
2023-04-13T03:50:41.707Z,53.50
2023-04-13T03:53:08.970Z,53.70
2023-04-13T03:55:37.006Z,54.60
2023-04-13T03:58:05.745Z,55.10
2023-04-13T04:00:33.216Z,55.30
2023-04-13T04:03:00.487Z,56.10
2023-04-13T04:05:28.079Z,56.80
2023-04-13T04:07:55.453Z,56.80
2023-04-13T04:10:22.778Z,57.10
2023-04-13T04:12:50.022Z,57.80
2023-04-13T04:15:17.341Z,57.80
2023-04-13T04:17:44.617Z,58.30
2023-04-13T04:20:12.194Z,58.10
2023-04-13T04:22:39.535Z,58.40
2023-04-13T04:25:07.400Z,58.40
2023-04-13T04:27:40.885Z,58.80
2023-04-13T04:30:10.981Z,59.00
2023-04-13T04:32:38.445Z,59.40
2023-04-13T04:35:06.881Z,59.80
2023-04-13T04:37:37.566Z,59.90
2023-04-13T04:40:09.460Z,60.10
2023-04-13T04:42:39.954Z,60.00
2023-04-13T04:45:08.361Z,60.40
2023-04-13T04:47:42.211Z,60.80
2023-04-13T04:50:14.674Z,61.40
2023-04-13T04:52:42.261Z,61.00
2023-04-13T04:55:10.485Z,61.90
2023-04-13T04:57:37.757Z,62.80
2023-04-13T05:00:17.979Z,63.30
2023-04-13T05:02:46.556Z,63.90
2023-04-13T05:05:14.138Z,64.00
2023-04-13T05:07:41.363Z,64.10
2023-04-13T05:10:10.200Z,64.60
2023-04-13T05:12:37.780Z,64.90
2023-04-13T05:15:06.510Z,65.40
2023-04-13T05:17:34.926Z,66.00
2023-04-13T05:20:06.714Z,66.40
2023-04-13T05:22:34.008Z,67.10
2023-04-13T05:25:01.354Z,67.60
2023-04-13T05:27:28.591Z,68.30
2023-04-13T05:29:57.295Z,68.90
2023-04-13T05:32:24.654Z,70.00
2023-04-13T05:34:51.892Z,70.60
2023-04-13T05:37:19.117Z,71.20
2023-04-13T05:39:46.582Z,72.00
2023-04-13T05:42:15.829Z,73.60
2023-04-13T05:44:43.194Z,73.70
2023-04-13T05:47:10.415Z,74.20
2023-04-13T05:49:37.688Z,74.90
2023-04-13T05:52:07.675Z,76.00
2023-04-13T05:54:35.404Z,76.10
2023-04-13T05:57:02.668Z,77.00
2023-04-13T05:59:29.957Z,78.40
2023-04-13T06:01:57.571Z,78.70
2023-04-13T06:04:25.199Z,78.80
2023-04-13T06:06:52.632Z,80.20
2023-04-13T06:09:19.928Z,80.60
2023-04-13T06:11:47.276Z,80.60
2023-04-13T06:14:15.333Z,81.80
2023-04-13T06:16:43.556Z,82.10
2023-04-13T06:19:12.885Z,82.10
2023-04-13T06:21:40.148Z,82.40
2023-04-13T06:24:07.620Z,82.40
2023-04-13T06:26:35.054Z,82.60
2023-04-13T06:29:02.892Z,83.00
2023-04-13T06:31:30.300Z,83.20
2023-04-13T06:33:57.700Z,83.50
2023-04-13T06:36:26.035Z,83.60
2023-04-13T06:38:53.296Z,83.90
2023-04-13T06:41:20.656Z,84.40
2023-04-13T06:43:48.705Z,85.10
2023-04-13T06:46:19.591Z,85.10
2023-04-13T06:48:47.799Z,85.00
2023-04-13T06:51:16.100Z,85.10
2023-04-13T06:53:43.819Z,85.30
2023-04-13T06:56:11.283Z,85.60
2023-04-13T06:58:38.505Z,85.70
2023-04-13T07:01:06.976Z,86.00
2023-04-13T07:03:34.471Z,86.30
2023-04-13T07:06:01.906Z,87.50
2023-04-13T07:08:29.168Z,87.10
2023-04-13T07:10:57.739Z,86.90
2023-04-13T07:13:27.272Z,86.90
2023-04-13T07:15:54.660Z,87.30
2023-04-13T07:18:21.892Z,86.90
2023-04-13T07:20:49.143Z,87.30
2023-04-13T07:23:16.412Z,87.10
2023-04-13T07:25:44.933Z,87.80
2023-04-13T07:28:12.034Z,88.00
2023-04-13T07:30:44.673Z,89.30
2023-04-13T07:33:12.396Z,88.70
2023-04-13T07:35:40.128Z,88.50
2023-04-13T07:38:07.494Z,89.10
2023-04-13T07:40:35.957Z,89.40
2023-04-13T07:43:03.087Z,90.00
2023-04-13T07:45:31.485Z,91.00
2023-04-13T07:47:58.914Z,90.70
2023-04-13T07:50:26.293Z,91.00
2023-04-13T07:52:53.638Z,90.90
2023-04-13T07:55:21.007Z,91.10
2023-04-13T07:57:48.265Z,91.40
2023-04-13T08:00:17.069Z,91.40
2023-04-13T08:02:44.391Z,91.90
2023-04-13T08:05:12.571Z,91.70
2023-04-13T08:07:39.842Z,91.90
2023-04-13T08:10:08.446Z,92.00
2023-04-13T08:12:35.665Z,92.10
2023-04-13T08:15:03.079Z,92.30
2023-04-13T08:17:30.524Z,91.80
2023-04-13T08:19:57.764Z,91.80
2023-04-13T08:22:25.110Z,91.70
2023-04-13T08:24:53.243Z,91.50
2023-04-13T08:27:20.521Z,91.20
2023-04-13T08:29:47.737Z,91.20
2023-04-13T08:32:15.103Z,91.20
2023-04-13T08:34:42.660Z,91.10
2023-04-13T08:37:11.689Z,90.80
2023-04-13T08:39:39.638Z,90.60
2023-04-13T08:42:08.109Z,90.50
2023-04-13T08:44:40.240Z,90.40
2023-04-13T08:47:07.728Z,90.70
2023-04-13T08:49:37.446Z,90.50
2023-04-13T08:52:09.660Z,90.70
2023-04-13T08:54:37.062Z,90.60
2023-04-13T08:57:05.099Z,90.60
2023-04-13T08:59:33.645Z,90.70
2023-04-13T09:02:04.534Z,90.10
2023-04-13T09:04:37.985Z,90.30
2023-04-13T09:07:07.168Z,90.10
2023-04-13T09:09:38.305Z,89.30
2023-04-13T09:12:06.103Z,88.70
2023-04-13T09:14:33.611Z,87.30
2023-04-13T09:17:00.994Z,88.00
2023-04-13T09:19:33.162Z,87.50
2023-04-13T09:22:12.831Z,87.70
2023-04-13T09:24:42.554Z,87.90
2023-04-13T09:27:24.038Z,87.80
2023-04-13T09:30:12.782Z,87.40
2023-04-13T09:32:40.232Z,85.80
2023-04-13T09:35:08.486Z,85.60
2023-04-13T09:37:37.838Z,85.60
2023-04-13T09:40:29.693Z,84.80
2023-04-13T09:43:12.432Z,84.70
2023-04-13T09:45:46.476Z,85.30
2023-04-13T09:48:23.935Z,85.20
2023-04-13T09:51:11.969Z,84.80
2023-04-13T09:53:47.681Z,85.00
2023-04-13T09:56:16.121Z,84.80
2023-04-13T09:58:45.615Z,84.30
2023-04-13T10:01:17.514Z,84.40
2023-04-13T10:03:45.343Z,84.40
2023-04-13T10:06:12.968Z,84.60
2023-04-13T10:08:43.924Z,84.40
2023-04-13T10:11:15.545Z,84.50
2023-04-13T10:13:51.071Z,84.30
2023-04-13T10:16:43.329Z,84.40
2023-04-13T10:19:15.464Z,84.80
2023-04-13T10:21:50.284Z,84.30
2023-04-13T10:24:20.165Z,84.30
2023-04-13T10:26:47.720Z,83.60
2023-04-13T10:29:16.667Z,82.50
2023-04-13T10:31:52.372Z,82.70
2023-04-13T10:34:28.371Z,82.20
2023-04-13T10:36:58.588Z,82.00
2023-04-13T10:39:36.925Z,81.90
2023-04-13T10:42:09.183Z,81.00
2023-04-13T10:44:47.780Z,80.00
2023-04-13T10:47:17.878Z,80.60
2023-04-13T10:49:46.836Z,80.90
2023-04-13T10:52:15.891Z,80.40
2023-04-13T10:54:44.734Z,80.60
2023-04-13T10:57:13.457Z,80.50
2023-04-13T10:59:56.159Z,80.70
2023-04-13T11:02:32.609Z,80.30
2023-04-13T11:05:01.159Z,80.10
2023-04-13T11:07:29.822Z,79.30
2023-04-13T11:10:03.721Z,78.90
2023-04-13T11:12:31.773Z,78.30
2023-04-13T11:15:00.053Z,77.70
2023-04-13T11:17:27.688Z,77.30
2023-04-13T11:19:58.719Z,76.10
2023-04-13T11:22:28.964Z,75.60
2023-04-13T11:25:09.968Z,75.40
2023-04-13T11:27:38.320Z,74.70
2023-04-13T11:30:09.580Z,73.30
2023-04-13T11:32:43.771Z,72.40
2023-04-13T11:35:14.849Z,71.60
2023-04-13T11:37:47.127Z,71.00
2023-04-13T11:40:20.344Z,71.30
2023-04-13T11:42:53.608Z,70.90
2023-04-13T11:45:25.559Z,71.00
2023-04-13T11:47:55.890Z,70.90
2023-04-13T11:50:24.109Z,70.40
2023-04-13T11:52:56.754Z,70.60
2023-04-13T11:55:25.632Z,71.40
2023-04-13T11:57:54.295Z,72.10
2023-04-13T12:00:28.955Z,72.90
2023-04-13T12:05:32.465Z,73.80
2023-04-13T12:08:02.754Z,74.40
2023-04-13T12:10:41.386Z,74.70
2023-04-13T12:13:31.140Z,74.90
2023-04-13T12:16:09.501Z,74.80
2023-04-13T12:18:48.199Z,74.90
2023-04-13T12:21:20.470Z,74.50
2023-04-13T12:24:05.787Z,74.40
2023-04-13T12:27:09.946Z,74.20
2023-04-13T12:29:28.505Z,74.20
2023-04-13T12:32:04.081Z,74.80
2023-04-13T12:34:31.413Z,75.30
2023-04-13T12:37:01.225Z,75.90
2023-04-13T12:39:28.467Z,75.80
2023-04-13T12:41:57.751Z,76.00
2023-04-13T12:44:25.058Z,76.00
2023-04-13T12:46:52.350Z,76.40
2023-04-13T12:49:21.746Z,76.60
2023-04-13T12:51:50.504Z,77.10
2023-04-13T12:54:18.162Z,77.00
2023-04-13T12:56:45.804Z,77.20
2023-04-13T12:59:13.204Z,77.30
2023-04-13T13:01:41.593Z,77.60
2023-04-13T13:04:10.247Z,77.90
2023-04-13T13:06:38.104Z,78.90
2023-04-13T13:09:07.771Z,78.70
2023-04-13T13:11:37.073Z,79.40
2023-04-13T13:14:04.622Z,79.70
2023-04-13T13:16:32.465Z,79.70
2023-04-13T13:18:59.703Z,80.10
2023-04-13T13:21:32.286Z,80.10
2023-04-13T13:23:59.852Z,79.90
2023-04-13T13:29:34.002Z,80.20
2023-04-13T13:32:14.733Z,80.00
2023-04-13T13:34:48.715Z,80.00
2023-04-13T13:37:16.198Z,80.10
2023-04-13T13:39:43.404Z,80.00
2023-04-13T13:42:10.639Z,80.00
2023-04-13T13:44:37.986Z,80.10
2023-04-13T13:47:05.681Z,80.10
2023-04-13T13:49:33.088Z,79.80
2023-04-13T13:52:01.112Z,79.20
2023-04-13T13:54:28.388Z,79.20
2023-04-13T13:56:56.209Z,79.00
2023-04-13T13:59:24.770Z,78.60
2023-04-13T14:01:52.070Z,78.50
2023-04-13T14:04:20.570Z,78.80
2023-04-13T14:06:49.768Z,78.80
2023-04-13T14:09:18.945Z,79.60
2023-04-13T14:11:46.257Z,79.60
2023-04-13T14:14:25.198Z,79.80
2023-04-13T14:16:52.484Z,80.00
2023-04-13T14:19:20.842Z,80.20
2023-04-13T14:21:49.426Z,80.20
2023-04-13T14:24:16.672Z,80.10
2023-04-13T14:26:43.946Z,80.00
2023-04-13T14:29:15.730Z,79.90
2023-04-13T14:31:43.079Z,80.10
2023-04-13T14:34:12.986Z,79.60
2023-04-13T14:36:40.305Z,79.60
2023-04-13T14:39:07.764Z,79.70
2023-04-13T14:41:35.012Z,79.20
2023-04-13T14:44:02.209Z,79.00
2023-04-13T14:46:29.497Z,79.00
2023-04-13T14:48:56.716Z,79.00
2023-04-13T14:51:24.137Z,78.90
2023-04-13T14:53:56.286Z,79.00
2023-04-13T14:56:24.010Z,79.00
2023-04-13T14:58:51.971Z,79.30
2023-04-13T15:01:21.959Z,79.30
2023-04-13T15:03:53.971Z,79.30
2023-04-13T15:06:22.498Z,79.60
2023-04-13T15:08:50.069Z,79.60
2023-04-13T15:11:17.390Z,79.70
2023-04-13T15:13:46.156Z,79.90
2023-04-13T15:16:13.745Z,79.80
2023-04-13T15:18:41.223Z,80.00
2023-04-13T15:21:08.530Z,80.30
2023-04-13T15:23:36.607Z,80.20
2023-04-13T15:26:04.552Z,80.10
2023-04-13T15:28:37.739Z,80.30
2023-04-13T15:31:06.223Z,80.40
2023-04-13T15:33:36.389Z,80.30
2023-04-13T15:36:04.018Z,80.20
2023-04-13T15:38:31.427Z,80.30
2023-04-13T15:40:58.775Z,80.40
2023-04-13T15:43:26.177Z,80.40
2023-04-13T15:45:53.394Z,80.60
2023-04-13T15:48:20.764Z,81.00
2023-04-13T15:50:47.938Z,80.80
2023-04-13T15:53:15.753Z,80.90
2023-04-13T15:55:42.970Z,81.00
2023-04-13T15:58:10.225Z,81.10
2023-04-13T16:00:37.464Z,81.00
2023-04-13T16:03:04.833Z,81.10
2023-04-13T16:05:32.362Z,81.00
2023-04-13T16:07:59.566Z,81.10
2023-04-13T16:10:27.211Z,81.60
2023-04-13T16:12:54.959Z,81.60
2023-04-13T16:15:24.200Z,81.80
2023-04-13T16:17:51.786Z,81.80
2023-04-13T16:20:19.872Z,82.10
2023-04-13T16:22:49.527Z,82.00
2023-04-13T16:25:19.310Z,82.10
2023-04-13T16:27:50.848Z,82.10
2023-04-13T16:30:21.222Z,82.70
2023-04-13T16:32:49.996Z,83.00
2023-04-13T16:35:17.502Z,83.50
2023-04-13T16:37:45.243Z,83.80
2023-04-13T16:40:13.762Z,84.20
2023-04-13T16:42:42.457Z,84.60
2023-04-13T16:45:13.747Z,84.70
2023-04-13T16:47:42.194Z,84.40
2023-04-13T16:50:11.526Z,85.00
2023-04-13T16:52:41.304Z,86.00
2023-04-13T16:55:17.714Z,86.30
2023-04-13T16:57:45.308Z,86.40
2023-04-13T17:00:15.576Z,86.30
2023-04-13T17:02:43.316Z,87.00
2023-04-13T17:05:12.644Z,87.20
2023-04-13T17:07:42.959Z,86.80
2023-04-13T17:10:12.944Z,86.80
2023-04-13T17:12:41.105Z,86.90
2023-04-13T17:15:10.077Z,87.00
2023-04-13T17:17:38.522Z,86.90
2023-04-13T17:20:07.314Z,86.80
2023-04-13T17:22:34.635Z,86.90
2023-04-13T17:25:01.890Z,86.80
2023-04-13T17:27:29.205Z,86.70
2023-04-13T17:29:58.080Z,86.80
2023-04-13T17:32:25.367Z,86.90
2023-04-13T17:34:52.731Z,86.80
2023-04-13T17:37:19.998Z,86.80
2023-04-13T17:39:47.862Z,86.70
2023-04-13T17:42:15.391Z,86.70
2023-04-13T17:44:43.817Z,86.70
2023-04-13T17:47:10.962Z,86.50
2023-04-13T17:49:38.780Z,86.80
2023-04-13T17:52:06.252Z,86.70
2023-04-13T17:54:33.494Z,87.20
2023-04-13T17:57:01.948Z,86.70
2023-04-13T17:59:29.170Z,87.00
2023-04-13T18:01:58.989Z,87.20
2023-04-13T18:04:26.684Z,88.00
2023-04-13T18:06:56.515Z,86.90
2023-04-13T18:09:24.957Z,87.00
2023-04-13T18:11:52.136Z,88.20
2023-04-13T18:14:19.383Z,87.20
2023-04-13T18:16:47.582Z,88.30
2023-04-13T18:19:15.200Z,88.80
2023-04-13T18:21:42.479Z,88.40
2023-04-13T18:24:09.767Z,88.30
2023-04-13T18:26:36.980Z,88.50
2023-04-13T18:29:04.326Z,88.50
2023-04-13T18:31:32.305Z,88.50
2023-04-13T18:33:59.896Z,88.50
2023-04-13T18:36:27.654Z,89.20
2023-04-13T18:38:55.173Z,89.10
2023-04-13T18:41:22.505Z,89.20
2023-04-13T18:43:49.738Z,89.60
2023-04-13T18:46:17.086Z,89.90
2023-04-13T18:48:44.333Z,89.70
2023-04-13T18:51:12.454Z,89.70
2023-04-13T18:53:39.745Z,90.00
2023-04-13T18:56:07.050Z,89.80
2023-04-13T18:58:34.299Z,89.80
2023-04-13T19:01:01.529Z,90.00
2023-04-13T19:03:29.388Z,90.00
2023-04-13T19:05:56.705Z,90.00
2023-04-13T19:08:23.931Z,90.10
2023-04-13T19:10:51.982Z,90.00
2023-04-13T19:13:19.205Z,90.00
2023-04-13T19:15:46.874Z,90.00
2023-04-13T19:18:14.167Z,90.00
2023-04-13T19:20:41.418Z,90.00
2023-04-13T19:23:08.823Z,89.90
2023-04-13T19:25:36.158Z,89.60
2023-04-13T19:28:03.609Z,89.70
2023-04-13T19:30:31.192Z,89.70
2023-04-13T19:32:59.219Z,89.60
2023-04-13T19:35:27.202Z,89.60
2023-04-13T19:37:55.190Z,89.30
2023-04-13T19:40:23.285Z,89.20
2023-04-13T19:42:50.616Z,89.00
2023-04-13T19:45:17.857Z,88.70
2023-04-13T19:47:45.983Z,88.60
2023-04-13T19:50:15.331Z,88.50
2023-04-13T19:52:43.087Z,88.10
2023-04-13T19:55:11.027Z,88.80
2023-04-13T19:57:43.098Z,87.90
2023-04-13T20:00:20.562Z,88.00
2023-04-13T20:02:50.232Z,87.90
2023-04-13T20:05:19.809Z,87.90
2023-04-13T20:07:47.199Z,88.00
2023-04-13T20:10:14.598Z,88.00
2023-04-13T20:12:41.898Z,88.10
2023-04-13T20:15:09.531Z,88.30
2023-04-13T20:17:36.892Z,88.10
2023-04-13T20:20:06.496Z,88.00
2023-04-13T20:22:33.907Z,88.10
2023-04-13T20:25:01.126Z,88.40
2023-04-13T20:27:29.840Z,88.40
2023-04-13T20:29:57.134Z,88.30
2023-04-13T20:32:24.364Z,88.40
2023-04-13T20:34:53.258Z,88.40
2023-04-13T20:37:20.503Z,88.40
2023-04-13T20:39:50.623Z,88.40
2023-04-13T20:42:19.984Z,88.50
2023-04-13T20:44:47.864Z,88.70
2023-04-13T20:47:16.856Z,88.90
2023-04-13T20:49:46.943Z,88.80
2023-04-13T20:52:14.410Z,89.20
2023-04-13T20:54:42.553Z,89.50
2023-04-13T20:57:09.936Z,90.00
2023-04-13T20:59:39.943Z,90.00
2023-04-13T21:02:08.008Z,90.10
2023-04-13T21:04:35.919Z,90.10
2023-04-13T21:07:03.952Z,90.20
2023-04-13T21:09:31.197Z,90.20
2023-04-13T21:11:58.654Z,90.20
2023-04-13T21:14:26.175Z,90.30
2023-04-13T21:16:54.714Z,90.60
2023-04-13T21:19:23.130Z,90.50
2023-04-13T21:21:50.257Z,90.60
2023-04-13T21:24:17.538Z,90.70
2023-04-13T21:26:44.766Z,90.80
2023-04-13T21:29:12.018Z,90.70
2023-04-13T21:31:39.249Z,90.70
2023-04-13T21:34:06.566Z,90.80
2023-04-13T21:39:04.273Z,91.20
2023-04-13T21:41:31.514Z,91.30
2023-04-13T21:43:58.761Z,91.60
2023-04-13T21:46:26.145Z,91.50
2023-04-13T21:48:53.385Z,91.50
2023-04-13T21:51:20.561Z,91.80
2023-04-13T21:53:48.327Z,92.30
2023-04-13T21:56:15.587Z,92.20
2023-04-13T21:58:46.014Z,92.30
2023-04-13T22:01:14.618Z,92.40
2023-04-13T22:03:47.026Z,92.30
2023-04-13T22:06:15.110Z,92.30
2023-04-13T22:08:42.515Z,92.40
2023-04-13T22:11:10.040Z,92.40
2023-04-13T22:13:37.513Z,92.30
2023-04-13T22:16:05.166Z,92.30
2023-04-13T22:18:32.467Z,92.40
2023-04-13T22:21:00.333Z,92.40
2023-04-13T22:23:27.717Z,92.50
2023-04-13T22:26:01.645Z,92.50
2023-04-13T22:28:31.086Z,92.60
2023-04-13T22:31:05.104Z,92.50
2023-04-13T22:33:36.007Z,92.70
2023-04-13T22:36:05.467Z,92.70
2023-04-13T22:38:32.984Z,92.70
2023-04-13T22:41:06.961Z,92.70
2023-04-13T22:43:34.369Z,92.70
2023-04-13T22:46:01.692Z,92.90
2023-04-13T22:48:30.088Z,92.90
2023-04-13T22:51:00.813Z,93.10
2023-04-13T22:53:28.387Z,93.30
2023-04-13T22:55:55.807Z,93.20
2023-04-13T22:58:23.359Z,93.10
2023-04-13T23:00:50.809Z,93.10
2023-04-13T23:03:18.348Z,93.10
2023-04-13T23:05:45.989Z,93.30
2023-04-13T23:08:13.757Z,93.40
2023-04-13T23:10:41.262Z,93.70
2023-04-13T23:13:08.504Z,93.90
2023-04-13T23:15:35.933Z,93.90
2023-04-13T23:18:03.265Z,93.80
2023-04-13T23:20:31.065Z,94.20
2023-04-13T23:22:58.322Z,94.50
2023-04-13T23:25:25.660Z,94.40
2023-04-13T23:27:52.815Z,94.50
2023-04-13T23:30:21.280Z,94.50
2023-04-13T23:32:48.439Z,94.50
2023-04-13T23:35:15.953Z,94.90
2023-04-13T23:37:45.341Z,94.70
2023-04-13T23:40:12.841Z,94.50
2023-04-13T23:42:40.572Z,94.50
2023-04-13T23:45:08.922Z,94.50
2023-04-13T23:47:36.183Z,94.50
2023-04-13T23:50:03.921Z,94.50
2023-04-13T23:52:31.088Z,94.50
2023-04-13T23:54:58.325Z,94.50
2023-04-13T23:57:25.760Z,94.50
2023-04-13T23:59:57.470Z,94.50
